createdAt,value
2022-09-26T00:01:43.690Z,100713.44
2022-09-26T00:04:24.612Z,100714.22
2022-09-26T00:06:56.283Z,100708.56
2022-09-26T00:09:26.550Z,100699.34
2022-09-26T00:11:54.610Z,100710.38
2022-09-26T00:14:26.623Z,100703.22
2022-09-26T00:16:55.811Z,100698.78
2022-09-26T00:19:24.675Z,100705.13
2022-09-26T00:21:53.661Z,100703.53
2022-09-26T00:24:22.661Z,100695.50
2022-09-26T00:26:50.694Z,100696.28
2022-09-26T00:29:20.465Z,100696.41
2022-09-26T00:31:50.477Z,100692.09
2022-09-26T00:34:20.790Z,100678.34
2022-09-26T00:36:50.534Z,100678.00
2022-09-26T00:39:19.092Z,100674.03
2022-09-26T00:41:47.591Z,100673.16
2022-09-26T00:44:36.601Z,100662.34
2022-09-26T00:47:06.888Z,100662.00
2022-09-26T00:49:38.686Z,100657.56
2022-09-26T00:52:11.970Z,100649.88
2022-09-26T00:54:46.239Z,100653.03
2022-09-26T00:57:23.743Z,100645.53
2022-09-26T00:59:58.030Z,100645.66
2022-09-26T01:02:28.990Z,100638.63
2022-09-26T01:05:00.335Z,100631.03
2022-09-26T01:07:29.856Z,100625.38
2022-09-26T01:10:00.059Z,100625.81
2022-09-26T01:12:29.877Z,100620.94
2022-09-26T01:14:59.885Z,100614.78
2022-09-26T01:17:28.975Z,100604.84
2022-09-26T01:19:57.273Z,100604.16
2022-09-26T01:23:03.970Z,100599.38
2022-09-26T01:26:09.011Z,100600.31
2022-09-26T01:29:03.879Z,100600.97
2022-09-26T01:32:28.074Z,100592.22
2022-09-26T01:35:01.133Z,100590.75
2022-09-26T01:37:38.396Z,100584.50
2022-09-26T01:40:16.417Z,100576.94
2022-09-26T01:43:21.062Z,100572.72
2022-09-26T01:45:52.490Z,100565.03
2022-09-26T01:48:26.221Z,100554.13
2022-09-26T01:50:58.174Z,100556.50
2022-09-26T01:53:51.159Z,100552.44
2022-09-26T01:56:26.382Z,100540.75
2022-09-26T01:59:11.390Z,100529.88
2022-09-26T02:01:44.271Z,100528.88
2022-09-26T02:04:19.334Z,100526.03
2022-09-26T02:06:56.369Z,100519.13
2022-09-26T02:09:31.653Z,100506.97
2022-09-26T02:12:02.504Z,100502.44
2022-09-26T02:14:39.479Z,100491.31
2022-09-26T02:17:35.518Z,100484.72
2022-09-26T02:20:11.514Z,100472.06
2022-09-26T02:22:40.594Z,100463.31
2022-09-26T02:25:09.888Z,100447.44
2022-09-26T02:27:40.130Z,100451.22
2022-09-26T02:30:13.507Z,100440.44
2022-09-26T02:32:42.623Z,100437.47
2022-09-26T02:35:30.144Z,100444.22
2022-09-26T02:37:59.662Z,100446.75
2022-09-26T02:40:41.002Z,100448.34
2022-09-26T02:43:55.788Z,100449.75
2022-09-26T02:46:51.757Z,100441.63
2022-09-26T02:49:53.971Z,100441.19
2022-09-26T02:52:28.829Z,100426.56
2022-09-26T02:55:16.858Z,100427.75
2022-09-26T02:58:07.375Z,100429.53
2022-09-26T03:01:11.905Z,100414.59
2022-09-26T03:04:00.955Z,100401.59
2022-09-26T03:06:44.931Z,100402.72
2022-09-26T03:09:16.929Z,100398.28
2022-09-26T03:11:45.997Z,100398.69
2022-09-26T03:14:15.019Z,100381.97
2022-09-26T03:16:46.041Z,100381.81
2022-09-26T03:19:28.064Z,100377.34
2022-09-26T03:21:58.274Z,100372.28
2022-09-26T03:24:29.082Z,100367.81
2022-09-26T03:27:01.028Z,100365.38
2022-09-26T03:29:30.130Z,100366.22
2022-09-26T03:32:01.238Z,100352.19
2022-09-26T03:34:30.173Z,100346.91
2022-09-26T03:36:59.199Z,100344.28
2022-09-26T03:39:28.218Z,100329.69
2022-09-26T03:42:07.458Z,100321.00
2022-09-26T03:44:36.246Z,100316.66
2022-09-26T03:47:14.340Z,100317.78
2022-09-26T03:49:46.682Z,100306.13
2022-09-26T03:52:15.416Z,100306.09
2022-09-26T03:54:46.388Z,100295.59
2022-09-26T03:57:17.410Z,100291.75
2022-09-26T03:59:51.441Z,100287.66
2022-09-26T04:02:21.524Z,100293.78
2022-09-26T04:04:59.718Z,100302.13
2022-09-26T04:07:28.707Z,100286.38
2022-09-26T04:09:59.490Z,100282.91
2022-09-26T04:12:28.566Z,100284.66
2022-09-26T04:14:56.908Z,100271.75
2022-09-26T04:17:25.639Z,100266.72
2022-09-26T04:19:55.850Z,100257.91
2022-09-26T04:22:26.544Z,100252.09
2022-09-26T04:24:55.016Z,100248.81
2022-09-26T04:27:29.888Z,100242.22
2022-09-26T04:29:59.524Z,100227.66
2022-09-26T04:32:40.729Z,100228.78
2022-09-26T04:35:32.803Z,100203.69
2022-09-26T04:38:01.805Z,100207.63
2022-09-26T04:40:32.422Z,100188.81
2022-09-26T04:43:05.915Z,100183.94
2022-09-26T04:45:34.902Z,100178.16
2022-09-26T04:48:05.131Z,100170.47
2022-09-26T04:50:44.926Z,100182.94
2022-09-26T04:53:14.156Z,100177.75
2022-09-26T04:56:02.250Z,100173.09
2022-09-26T04:58:33.952Z,100182.50
2022-09-26T05:01:06.389Z,100178.81
2022-09-26T05:03:47.005Z,100163.53
2022-09-26T05:06:17.279Z,100153.56
2022-09-26T05:08:50.277Z,100155.09
2022-09-26T05:11:25.403Z,100143.66
2022-09-26T05:13:54.353Z,100139.06
2022-09-26T05:16:29.248Z,100138.66
2022-09-26T05:19:02.064Z,100134.03
2022-09-26T05:21:30.525Z,100130.94
2022-09-26T05:24:19.181Z,100116.22
2022-09-26T05:26:51.211Z,100105.56
2022-09-26T05:29:22.775Z,100098.94
2022-09-26T05:32:00.335Z,100098.88
2022-09-26T05:34:33.346Z,100090.50
2022-09-26T05:37:03.580Z,100093.47
2022-09-26T05:39:52.233Z,100084.88
2022-09-26T05:42:21.399Z,100089.63
2022-09-26T05:44:50.480Z,100093.94
2022-09-26T05:47:19.411Z,100092.78
2022-09-26T05:49:49.745Z,100094.63
2022-09-26T05:52:24.567Z,100081.28
2022-09-26T05:54:54.749Z,100080.97
2022-09-26T05:57:50.505Z,100081.56
2022-09-26T06:00:21.569Z,100074.94
2022-09-26T06:02:59.552Z,100073.66
2022-09-26T06:05:44.793Z,100069.03
2022-09-26T06:08:18.599Z,100058.28
2022-09-26T06:10:51.661Z,100057.34
2022-09-26T06:13:21.921Z,100056.19
2022-09-26T06:15:52.850Z,100058.78
2022-09-26T06:18:22.080Z,100046.22
2022-09-26T06:20:51.980Z,100048.81
2022-09-26T06:23:21.621Z,100035.09
2022-09-26T06:25:51.770Z,100023.94
2022-09-26T06:28:20.190Z,100040.25
2022-09-26T06:30:49.176Z,100026.94
2022-09-26T06:33:35.834Z,100020.66
2022-09-26T06:36:29.248Z,100013.34
2022-09-26T06:38:57.955Z,100007.75
2022-09-26T06:41:30.947Z,100008.00
2022-09-26T06:44:00.197Z,100000.31
2022-09-26T06:46:47.047Z,100000.25
2022-09-26T06:49:20.280Z,99986.50
2022-09-26T06:52:12.047Z,99980.56
2022-09-26T06:54:41.065Z,99971.13
2022-09-26T06:57:15.080Z,99959.66
2022-09-26T06:59:45.225Z,99950.75
2022-09-26T07:02:38.393Z,99941.66
2022-09-26T07:05:23.421Z,99940.03
2022-09-26T07:07:54.218Z,99932.06
2022-09-26T07:10:31.243Z,99933.13
2022-09-26T07:13:07.633Z,99931.91
2022-09-26T07:15:38.290Z,99928.31
2022-09-26T07:18:23.689Z,99914.06
2022-09-26T07:21:18.362Z,99909.97
2022-09-26T07:23:52.406Z,99913.63
2022-09-26T07:26:22.383Z,99909.16
2022-09-26T07:28:54.550Z,99903.88
2022-09-26T07:31:27.734Z,99893.75
2022-09-26T07:34:18.829Z,99891.31
2022-09-26T07:36:47.819Z,99890.59
2022-09-26T07:39:17.449Z,99897.59
2022-09-26T07:41:47.556Z,99884.56
2022-09-26T07:45:08.720Z,99880.25
2022-09-26T07:47:24.573Z,99890.25
2022-09-26T07:50:16.687Z,99884.41
2022-09-26T07:53:13.885Z,99877.00
2022-09-26T07:56:06.869Z,99865.81
2022-09-26T07:59:00.589Z,99871.91
2022-09-26T08:01:45.795Z,99869.44
2022-09-26T08:04:35.801Z,99862.81
2022-09-26T08:07:04.768Z,99858.81
2022-09-26T08:09:38.696Z,99858.25
2022-09-26T08:12:25.830Z,99843.06
2022-09-26T08:15:06.878Z,99843.25
2022-09-26T08:17:45.120Z,99835.16
2022-09-26T08:20:14.101Z,99828.63
2022-09-26T08:22:42.197Z,99823.84
2022-09-26T08:25:13.317Z,99821.53
2022-09-26T08:27:53.994Z,99821.69
2022-09-26T08:30:26.018Z,99816.53
2022-09-26T08:32:56.288Z,99818.84
2022-09-26T08:35:26.550Z,99812.03
2022-09-26T08:38:14.257Z,99801.25
2022-09-26T08:40:49.185Z,99801.50
2022-09-26T08:44:04.124Z,99808.50
2022-09-26T08:47:05.395Z,99803.72
2022-09-26T08:50:33.718Z,99804.03
2022-09-26T08:53:11.287Z,99794.34
2022-09-26T08:55:48.522Z,99800.22
2022-09-26T08:58:25.325Z,99796.00
2022-09-26T09:01:03.795Z,99787.03
2022-09-26T09:03:53.343Z,99784.13
2022-09-26T09:06:22.601Z,99778.56
2022-09-26T09:08:53.328Z,99778.19
2022-09-26T09:11:51.260Z,99782.34
2022-09-26T09:14:31.671Z,99775.38
2022-09-26T09:17:33.914Z,99775.19
2022-09-26T09:20:45.838Z,99768.59
2022-09-26T09:23:50.807Z,99771.13
2022-09-26T09:29:21.519Z,99768.38
2022-09-26T09:32:27.792Z,99766.78
2022-09-26T09:35:18.543Z,99768.69
2022-09-26T09:38:08.560Z,99752.69
2022-09-26T09:40:47.652Z,99750.97
2022-09-26T09:43:27.614Z,99742.25
2022-09-26T09:46:04.686Z,99720.78
2022-09-26T09:48:34.006Z,99720.91
2022-09-26T09:51:19.902Z,99714.03
2022-09-26T09:54:18.061Z,99717.94
2022-09-26T09:57:10.734Z,99705.28
2022-09-26T09:59:50.125Z,99699.03
2022-09-26T10:02:22.831Z,99694.16
2022-09-26T10:05:06.830Z,99688.66
2022-09-26T10:07:35.891Z,99687.59
2022-09-26T10:10:29.116Z,99678.06
2022-09-26T10:13:31.957Z,99667.59
2022-09-26T10:16:19.961Z,99666.91
2022-09-26T10:19:07.970Z,99665.75
2022-09-26T10:21:42.204Z,99673.59
2022-09-26T10:24:28.028Z,99664.03
2022-09-26T10:27:38.348Z,99652.78
2022-09-26T10:30:26.325Z,99650.69
2022-09-26T10:33:06.329Z,99646.69
2022-09-26T10:36:32.225Z,99648.72
2022-09-26T10:39:24.205Z,99641.56
2022-09-26T10:42:00.184Z,99638.09
2022-09-26T10:44:34.475Z,99639.19
2022-09-26T10:47:29.258Z,99627.78
2022-09-26T10:50:17.276Z,99622.09
2022-09-26T10:53:09.323Z,99627.91
2022-09-26T10:55:53.358Z,99637.63
2022-09-26T10:58:24.392Z,99638.56
2022-09-26T11:00:55.420Z,99619.84
2022-09-26T11:03:36.684Z,99623.22
2022-09-26T11:06:35.457Z,99622.03
2022-09-26T11:09:24.699Z,99626.75
2022-09-26T11:12:30.473Z,99625.03
2022-09-26T11:15:11.502Z,99621.25
2022-09-26T11:17:45.776Z,99622.78
2022-09-26T11:20:18.807Z,99626.25
2022-09-26T11:23:43.568Z,99628.63
2022-09-26T11:26:31.129Z,99613.78
2022-09-26T11:29:15.286Z,99623.16
2022-09-26T11:32:30.673Z,99605.72
2022-09-26T11:35:03.677Z,99601.38
2022-09-26T11:37:51.699Z,99591.69
2022-09-26T11:40:35.706Z,99590.19
2022-09-26T11:43:14.996Z,99574.06
2022-09-26T11:45:50.134Z,99562.63
2022-09-26T11:48:55.937Z,99562.41
2022-09-26T11:52:02.232Z,99569.72
2022-09-26T11:54:37.357Z,99559.53
2022-09-26T11:57:25.040Z,99549.13
2022-09-26T12:00:25.045Z,99548.44
2022-09-26T12:03:02.140Z,99554.09
2022-09-26T12:06:00.904Z,99551.31
2022-09-26T12:08:50.454Z,99548.06
2022-09-26T12:11:45.908Z,99546.63
2022-09-26T12:14:40.365Z,99549.94
2022-09-26T12:17:44.464Z,99539.63
2022-09-26T12:20:31.211Z,99532.00
2022-09-26T12:23:08.747Z,99529.34
2022-09-26T12:26:03.212Z,99526.50
2022-09-26T12:28:52.180Z,99531.66
2022-09-26T12:31:51.355Z,99525.50
2022-09-26T12:34:38.780Z,99523.78
2022-09-26T12:37:45.518Z,99513.81
2022-09-26T12:40:55.358Z,99508.19
2022-09-26T12:43:43.314Z,99507.94
2022-09-26T12:46:59.378Z,99505.00
2022-09-26T12:50:05.918Z,99502.94
2022-09-26T12:52:55.481Z,99505.56
2022-09-26T12:55:36.422Z,99496.63
2022-09-26T12:58:29.701Z,99507.22
2022-09-26T13:01:29.774Z,99496.03
2022-09-26T13:04:12.563Z,99493.91
2022-09-26T13:07:18.885Z,99488.41
2022-09-26T13:10:07.092Z,99489.28
2022-09-26T13:13:12.630Z,99496.25
2022-09-26T13:16:20.939Z,99491.59
2022-09-26T13:18:53.870Z,99467.47
2022-09-26T13:22:04.922Z,99486.88
2022-09-26T13:24:48.699Z,99481.88
2022-09-26T13:27:37.946Z,99468.75
2022-09-26T13:30:28.794Z,99473.56
2022-09-26T13:33:10.036Z,99465.44
2022-09-26T13:35:45.638Z,99466.09
2022-09-26T13:38:41.699Z,99469.72
2022-09-26T13:41:27.778Z,99463.06
2022-09-26T13:44:06.050Z,99461.03
2022-09-26T13:46:55.813Z,99465.16
2022-09-26T13:49:31.887Z,99461.25
2022-09-26T13:52:20.588Z,99459.19
2022-09-26T13:55:04.041Z,99452.41
2022-09-26T13:57:39.969Z,99451.88
2022-09-26T14:00:31.915Z,99446.38
2022-09-26T14:03:11.324Z,99442.88
2022-09-26T14:05:50.297Z,99433.41
2022-09-26T14:08:52.024Z,99439.66
2022-09-26T14:11:30.409Z,99442.91
2022-09-26T14:14:19.461Z,99430.22
2022-09-26T14:17:02.241Z,99424.81
2022-09-26T14:19:39.502Z,99429.13
2022-09-26T14:22:32.182Z,99423.44
2022-09-26T14:25:03.541Z,99420.59
2022-09-26T14:27:45.530Z,99425.34
2022-09-26T14:30:15.390Z,99418.00
2022-09-26T14:32:49.617Z,99417.59
2022-09-26T14:35:26.940Z,99410.63
2022-09-26T14:38:03.306Z,99415.03
2022-09-26T14:40:40.429Z,99405.22
2022-09-26T14:43:18.761Z,99404.44
2022-09-26T14:45:51.809Z,99413.84
2022-09-26T14:48:38.893Z,99407.16
2022-09-26T14:51:14.537Z,99399.16
2022-09-26T14:53:49.785Z,99411.25
2022-09-26T14:56:45.836Z,99388.91
2022-09-26T14:59:18.196Z,99404.03
2022-09-26T15:01:48.672Z,99406.69
2022-09-26T15:04:21.651Z,99402.66
2022-09-26T15:06:56.677Z,99392.59
2022-09-26T15:09:27.932Z,99402.28
2022-09-26T15:12:04.034Z,99402.75
2022-09-26T15:14:44.050Z,99389.97
2022-09-26T15:17:24.147Z,99398.88
2022-09-26T15:19:56.821Z,99388.41
2022-09-26T15:22:27.805Z,99398.41
2022-09-26T15:25:17.794Z,99391.44
2022-09-26T15:27:49.831Z,99386.84
2022-09-26T15:30:21.875Z,99383.59
2022-09-26T15:32:53.457Z,99376.06
2022-09-26T15:35:22.937Z,99378.31
2022-09-26T15:37:54.136Z,99364.00
2022-09-26T15:40:27.005Z,99368.59
2022-09-26T15:43:17.043Z,99347.84
2022-09-26T15:46:12.982Z,99354.06
2022-09-26T15:48:50.164Z,99361.00
2022-09-26T15:51:41.102Z,99354.31
2022-09-26T15:54:22.645Z,99350.97
2022-09-26T15:56:54.173Z,99353.75
2022-09-26T15:59:46.155Z,99352.53
2022-09-26T16:02:30.343Z,99353.81
2022-09-26T16:05:00.472Z,99356.50
2022-09-26T16:07:34.268Z,99353.69
2022-09-26T16:10:07.249Z,99357.19
2022-09-26T16:12:42.559Z,99360.88
2022-09-26T16:15:29.437Z,99360.53
2022-09-26T16:18:00.360Z,99356.28
2022-09-26T16:20:31.633Z,99354.28
2022-09-26T16:23:05.231Z,99352.38
2022-09-26T16:25:48.674Z,99351.38
2022-09-26T16:28:19.460Z,99352.19
2022-09-26T16:30:59.557Z,99353.19
2022-09-26T16:33:31.496Z,99344.00
2022-09-26T16:36:07.523Z,99342.16
2022-09-26T16:39:10.625Z,99350.66
2022-09-26T16:42:40.949Z,99352.63
2022-09-26T16:45:16.061Z,99347.53
2022-09-26T16:47:51.772Z,99348.22
2022-09-26T16:50:35.820Z,99348.72
2022-09-26T16:53:09.133Z,99340.78
2022-09-26T16:55:37.858Z,99355.28
2022-09-26T16:58:08.395Z,99358.72
2022-09-26T17:00:56.894Z,99349.31
2022-09-26T17:03:33.775Z,99355.13
2022-09-26T17:06:04.185Z,99348.78
2022-09-26T17:08:35.039Z,99352.88
2022-09-26T17:11:08.283Z,99350.16
2022-09-26T17:13:40.953Z,99357.19
2022-09-26T17:16:13.061Z,99348.81
2022-09-26T17:18:46.035Z,99355.78
2022-09-26T17:21:19.053Z,99338.50
2022-09-26T17:23:49.308Z,99354.75
2022-09-26T17:29:38.027Z,99363.50
2022-09-26T17:32:09.649Z,99362.63
2022-09-26T17:34:37.733Z,99363.31
2022-09-26T17:37:04.602Z,99358.69
2022-09-26T17:39:31.987Z,99364.84
2022-09-26T17:41:59.219Z,99374.22
2022-09-26T17:44:26.396Z,99359.88
2022-09-26T17:46:58.693Z,99363.34
2022-09-26T17:49:37.326Z,99363.28
2022-09-26T17:52:06.493Z,99368.22
2022-09-26T17:54:42.644Z,99364.97
2022-09-26T17:57:16.410Z,99367.38
2022-09-26T17:59:43.209Z,99373.53
2022-09-26T18:02:24.382Z,99376.19
2022-09-26T18:04:54.935Z,99383.34
2022-09-26T18:07:24.571Z,99383.53
2022-09-26T18:09:52.412Z,99386.34
2022-09-26T18:12:25.534Z,99392.88
2022-09-26T18:14:52.446Z,99394.25
2022-09-26T18:17:19.544Z,99389.16
2022-09-26T18:19:46.997Z,99406.19
2022-09-26T18:22:24.474Z,99402.75
2022-09-26T18:24:51.783Z,99407.84
2022-09-26T18:27:18.788Z,99414.88
2022-09-26T18:29:48.877Z,99416.69
2022-09-26T18:32:29.074Z,99408.25
2022-09-26T18:34:58.550Z,99406.38
2022-09-26T18:37:25.656Z,99413.06
2022-09-26T18:39:55.702Z,99411.03
2022-09-26T18:42:24.903Z,99418.78
2022-09-26T18:47:43.014Z,99422.81
2022-09-26T18:50:19.679Z,99424.53
2022-09-26T18:52:46.978Z,99423.22
2022-09-26T18:55:41.048Z,99430.25
2022-09-26T18:58:25.430Z,99428.25
2022-09-26T19:01:13.334Z,99412.22
2022-09-26T19:03:42.417Z,99424.09
2022-09-26T19:06:12.627Z,99424.50
2022-09-26T19:08:42.962Z,99426.78
2022-09-26T19:11:18.012Z,99432.75
2022-09-26T19:13:56.498Z,99424.00
2022-09-26T19:16:24.581Z,99420.59
2022-09-26T19:18:52.387Z,99419.47
2022-09-26T19:21:35.532Z,99420.66
2022-09-26T19:24:20.731Z,99425.84
2022-09-26T19:26:53.859Z,99431.47
2022-09-26T19:29:27.867Z,99426.09
2022-09-26T19:31:55.048Z,99426.06
2022-09-26T19:34:22.358Z,99427.53
2022-09-26T19:36:52.489Z,99418.09
2022-09-26T19:39:20.988Z,99422.56
2022-09-26T19:41:47.815Z,99431.66
2022-09-26T19:50:18.018Z,99422.72
2022-09-26T19:52:44.940Z,99425.00
2022-09-26T19:55:17.334Z,99438.34
2022-09-26T19:57:44.170Z,99437.91
2022-09-26T20:00:12.333Z,99438.69
2022-09-26T20:02:39.310Z,99443.34
2022-09-26T20:05:23.953Z,99445.34
2022-09-26T20:07:51.574Z,99439.13
2022-09-26T20:10:21.729Z,99427.19
2022-09-26T20:12:48.732Z,99426.16
2022-09-26T20:15:16.733Z,99439.81
2022-09-26T20:17:44.840Z,99436.63
2022-09-26T20:20:22.884Z,99435.38
2022-09-26T20:22:51.510Z,99444.06
2022-09-26T20:25:29.902Z,99443.16
2022-09-26T20:27:57.730Z,99437.97
2022-09-26T20:30:43.632Z,99449.22
2022-09-26T20:33:13.671Z,99450.38
2022-09-26T20:35:45.005Z,99459.81
2022-09-26T20:38:38.603Z,99459.59
2022-09-26T20:41:13.315Z,99463.75
2022-09-26T20:43:41.817Z,99454.81
2022-09-26T20:46:09.504Z,99457.75
2022-09-26T20:48:37.635Z,99459.81
2022-09-26T20:51:05.826Z,99464.88
2022-09-26T20:53:32.756Z,99458.34
2022-09-26T20:55:59.981Z,99473.44
2022-09-26T20:58:27.120Z,99465.06
2022-09-26T21:00:53.954Z,99475.28
2022-09-26T21:03:25.232Z,99473.56
2022-09-26T21:05:52.317Z,99477.66
2022-09-26T21:08:27.452Z,99480.28
2022-09-26T21:10:56.232Z,99477.91
2022-09-26T21:13:23.775Z,99477.72
2022-09-26T21:15:51.703Z,99483.44
2022-09-26T21:18:24.257Z,99485.91
2022-09-26T21:20:52.076Z,99491.50
2022-09-26T21:23:22.515Z,99484.81
2022-09-26T21:25:49.410Z,99502.53
2022-09-26T21:28:22.498Z,99493.50
2022-09-26T21:30:49.785Z,99500.19
2022-09-26T21:33:16.555Z,99498.75
2022-09-26T21:35:43.316Z,99501.13
2022-09-26T21:38:10.373Z,99489.78
2022-09-26T21:40:39.349Z,99501.81
2022-09-26T21:43:11.691Z,99509.72
2022-09-26T21:45:39.104Z,99516.59
2022-09-26T21:48:05.967Z,99512.28
2022-09-26T21:50:32.746Z,99515.59
2022-09-26T21:53:03.250Z,99512.56
2022-09-26T21:55:33.850Z,99509.28
2022-09-26T21:58:03.698Z,99513.16
2022-09-26T22:00:30.422Z,99515.63
2022-09-26T22:03:01.116Z,99516.34
2022-09-26T22:05:27.878Z,99516.56
2022-09-26T22:07:55.890Z,99506.06
2022-09-26T22:10:22.818Z,99494.34
2022-09-26T22:12:56.524Z,99507.38
2022-09-26T22:15:23.475Z,99511.53
2022-09-26T22:17:50.158Z,99514.94
2022-09-26T22:20:17.123Z,99517.50
2022-09-26T22:22:43.991Z,99514.56
2022-09-26T22:25:10.639Z,99512.53
2022-09-26T22:27:37.950Z,99532.72
2022-09-26T22:30:05.981Z,99521.66
2022-09-26T22:32:32.678Z,99523.53
2022-09-26T22:34:59.454Z,99514.47
2022-09-26T22:37:26.197Z,99522.03
2022-09-26T22:39:53.294Z,99517.41
2022-09-26T22:42:20.039Z,99521.16
2022-09-26T22:44:46.827Z,99519.78
2022-09-26T22:47:13.462Z,99546.09
2022-09-26T22:49:40.288Z,99538.94
2022-09-26T22:52:06.995Z,99542.44
2022-09-26T22:54:33.766Z,99540.69
2022-09-26T22:57:00.460Z,99532.69
2022-09-26T22:59:27.161Z,99530.59
2022-09-26T23:01:58.413Z,99521.91
2022-09-26T23:04:45.117Z,99515.41
2022-09-26T23:07:11.846Z,99515.53
2022-09-26T23:09:38.658Z,99521.94
2022-09-26T23:12:05.501Z,99517.66
2022-09-26T23:14:32.392Z,99521.91
2022-09-26T23:16:59.123Z,99523.19
2022-09-26T23:19:26.010Z,99505.41
2022-09-26T23:21:52.725Z,99513.56
2022-09-26T23:24:19.566Z,99519.28
2022-09-26T23:26:46.455Z,99522.03
2022-09-26T23:29:13.242Z,99515.72
2022-09-26T23:31:40.041Z,99518.34
2022-09-26T23:34:06.781Z,99511.84
2022-09-26T23:36:33.566Z,99509.44
2022-09-26T23:39:00.474Z,99508.78
2022-09-26T23:41:27.331Z,99522.41
2022-09-26T23:43:54.054Z,99514.59
2022-09-26T23:46:20.862Z,99507.00
2022-09-26T23:48:47.662Z,99505.22
2022-09-26T23:51:14.401Z,99508.63
2022-09-26T23:53:41.137Z,99520.75
2022-09-26T23:56:12.260Z,99514.72
2022-09-26T23:58:39.111Z,99501.84
